createdAt,value
2023-01-01T00:02:20.158Z,6.45
2023-01-01T00:07:22.235Z,6.70
2023-01-01T00:12:34.697Z,7.00
2023-01-01T00:17:40.522Z,6.10
2023-01-01T00:22:56.475Z,6.22
2023-01-01T00:28:02.518Z,5.70
2023-01-01T00:33:04.420Z,6.07
2023-01-01T00:38:09.389Z,5.97
2023-01-01T00:43:11.275Z,5.75
2023-01-01T00:48:13.158Z,6.90
2023-01-01T00:53:18.129Z,6.65
2023-01-01T00:58:20.073Z,6.38
2023-01-01T01:03:36.434Z,6.07
2023-01-01T01:08:46.455Z,5.35
2023-01-01T01:13:51.220Z,6.00
2023-01-01T01:18:55.367Z,6.03
2023-01-01T01:23:59.882Z,5.15
2023-01-01T01:29:06.551Z,6.03
2023-01-01T01:34:25.618Z,5.13
2023-01-01T01:39:32.299Z,4.82
2023-01-01T01:44:57.967Z,4.93
2023-01-01T01:50:39.804Z,5.43
2023-01-01T01:56:02.164Z,5.38
2023-01-01T02:05:27.852Z,4.82
2023-01-01T02:10:36.451Z,4.47
2023-01-01T02:16:00.457Z,5.03
2023-01-01T02:21:16.382Z,4.40
2023-01-01T02:26:51.969Z,4.18
2023-01-01T02:32:17.748Z,4.28
2023-01-01T02:37:24.500Z,4.28
2023-01-01T02:42:29.968Z,4.93
2023-01-01T02:47:31.827Z,5.03
2023-01-01T02:52:58.008Z,5.10
2023-01-01T02:58:36.541Z,4.47
2023-01-01T03:03:53.772Z,3.45
2023-01-01T03:09:36.348Z,3.78
2023-01-01T03:14:54.632Z,3.55
2023-01-01T03:20:14.038Z,3.92
2023-01-01T03:25:29.780Z,3.83
2023-01-01T03:30:37.705Z,4.28
2023-01-01T03:35:47.169Z,3.53
2023-01-01T03:40:56.798Z,3.85
2023-01-01T03:46:00.968Z,4.07
2023-01-01T03:51:14.858Z,4.03
2023-01-01T03:56:30.149Z,3.95
2023-01-01T04:01:41.553Z,4.55
2023-01-01T04:06:44.216Z,4.97
2023-01-01T04:12:04.294Z,4.60
2023-01-01T04:17:08.358Z,3.70
2023-01-01T04:22:10.444Z,3.95
2023-01-01T04:27:12.292Z,4.30
2023-01-01T04:32:14.273Z,4.68
2023-01-01T04:37:25.075Z,4.03
2023-01-01T04:42:26.999Z,3.42
2023-01-01T04:47:28.919Z,3.60
2023-01-01T04:52:30.873Z,3.65
2023-01-01T04:57:32.795Z,3.78
2023-01-01T05:14:11.318Z,4.25
2023-01-01T05:39:05.774Z,3.88
2023-01-01T05:44:12.291Z,3.10
2023-01-01T05:49:17.723Z,3.33
2023-01-01T05:59:45.014Z,3.22
2023-01-01T06:04:49.347Z,52.88
2023-01-01T06:10:00.911Z,67.70
2023-01-01T06:15:07.312Z,37.47
2023-01-01T06:20:14.787Z,14.93
2023-01-01T06:25:23.272Z,7.22
2023-01-01T06:30:29.368Z,4.85
2023-01-01T06:35:36.175Z,3.70
2023-01-01T06:40:42.758Z,4.00
2023-01-01T06:45:45.920Z,4.03
2023-01-01T06:50:50.017Z,3.88
2023-01-01T06:55:57.575Z,4.03
2023-01-01T07:01:16.849Z,3.33
2023-01-01T07:06:29.113Z,3.30
2023-01-01T07:11:38.567Z,3.65
2023-01-01T07:16:44.754Z,4.35
2023-01-01T07:21:54.926Z,3.75
2023-01-01T07:27:01.628Z,3.83
2023-01-01T07:32:07.559Z,3.50
2023-01-01T07:37:14.833Z,3.42
2023-01-01T07:42:32.320Z,3.20
2023-01-01T07:47:38.614Z,3.30
2023-01-01T07:58:12.810Z,3.35
2023-01-01T08:03:19.024Z,3.42
2023-01-01T08:08:26.409Z,3.55
2023-01-01T08:13:37.324Z,3.50
2023-01-01T08:18:44.270Z,3.10
2023-01-01T08:23:52.963Z,3.40
2023-01-01T08:29:03.942Z,3.40
2023-01-01T08:34:14.855Z,3.00
2023-01-01T08:39:27.678Z,3.25
2023-01-01T08:44:34.838Z,2.95
2023-01-01T08:49:44.019Z,3.20
2023-01-01T08:54:52.289Z,3.40
2023-01-01T08:59:55.496Z,3.33
2023-01-01T09:04:59.680Z,3.50
2023-01-01T09:10:04.231Z,3.45
2023-01-01T09:15:45.755Z,3.55
2023-01-01T09:20:49.092Z,3.30
2023-01-01T09:25:56.942Z,3.20
2023-01-01T09:31:06.954Z,3.33
2023-01-01T09:36:38.623Z,4.60
2023-01-01T09:42:01.382Z,3.75
2023-01-01T09:47:16.154Z,4.05
2023-01-01T09:52:23.695Z,3.80
2023-01-01T09:57:54.678Z,3.95
2023-01-01T10:03:40.830Z,4.10
2023-01-01T10:09:12.141Z,3.45
2023-01-01T10:14:28.188Z,3.70
2023-01-01T10:19:46.143Z,3.90
2023-01-01T10:25:10.216Z,3.85
2023-01-01T10:30:20.564Z,3.92
2023-01-01T10:35:37.789Z,3.75
2023-01-01T10:40:40.180Z,4.25
2023-01-01T10:45:56.179Z,4.50
2023-01-01T10:51:07.378Z,4.03
2023-01-01T10:56:24.544Z,4.45
2023-01-01T11:01:36.988Z,4.55
2023-01-01T11:06:47.530Z,4.73
2023-01-01T11:12:11.905Z,4.90
2023-01-01T11:17:28.880Z,5.25
2023-01-01T11:22:42.156Z,5.07
2023-01-01T11:27:50.982Z,4.78
2023-01-01T11:33:03.209Z,4.97
2023-01-01T11:38:27.580Z,4.85
2023-01-01T11:43:50.602Z,5.43
2023-01-01T11:48:54.973Z,4.93
2023-01-01T11:54:19.282Z,5.40
2023-01-01T11:59:40.396Z,6.57
2023-01-01T12:05:14.173Z,6.57
2023-01-01T12:16:12.357Z,5.65
2023-01-01T12:21:36.158Z,6.40
2023-01-01T12:26:51.757Z,5.40
2023-01-01T12:32:29.407Z,5.15
2023-01-01T12:38:20.662Z,5.28
2023-01-01T12:44:01.949Z,5.82
2023-01-01T12:49:27.695Z,5.07
2023-01-01T12:55:13.872Z,5.05
2023-01-01T13:00:25.349Z,4.80
2023-01-01T13:05:44.206Z,5.35
2023-01-01T13:10:53.350Z,4.90
2023-01-01T13:15:59.195Z,4.30
2023-01-01T13:21:30.439Z,5.55
2023-01-01T13:26:41.705Z,5.40
2023-01-01T13:31:56.402Z,5.20
2023-01-01T13:37:28.140Z,5.78
2023-01-01T13:43:17.395Z,4.97
2023-01-01T13:48:26.933Z,4.35
2023-01-01T13:54:26.677Z,5.53
2023-01-01T14:00:01.674Z,4.30
2023-01-01T14:06:02.446Z,5.10
2023-01-01T14:11:31.519Z,4.28
2023-01-01T14:16:42.064Z,4.88
2023-01-01T14:22:04.121Z,4.32
2023-01-01T14:27:21.126Z,4.70
2023-01-01T14:32:37.850Z,5.55
2023-01-01T14:37:55.354Z,5.68
2023-01-01T14:43:09.804Z,4.40
2023-01-01T14:48:20.054Z,4.05
2023-01-01T14:53:37.068Z,5.05
2023-01-01T14:58:52.004Z,5.85
2023-01-01T15:04:06.049Z,5.18
2023-01-01T15:09:26.838Z,3.80
2023-01-01T15:14:38.598Z,5.15
2023-01-01T15:25:18.596Z,4.53
2023-01-01T15:30:33.850Z,5.10
2023-01-01T15:35:52.864Z,4.85
2023-01-01T15:41:21.008Z,4.75
2023-01-01T15:46:32.496Z,5.07
2023-01-01T15:51:47.275Z,5.32
2023-01-01T15:56:58.593Z,5.40
2023-01-01T16:02:26.390Z,5.53
2023-01-01T16:07:34.871Z,5.05
2023-01-01T16:12:44.330Z,4.70
2023-01-01T16:17:49.074Z,6.05
2023-01-01T16:22:59.075Z,4.97
2023-01-01T16:28:06.593Z,4.47
2023-01-01T16:33:17.654Z,4.50
2023-01-01T16:38:25.570Z,4.87
2023-01-01T16:43:32.465Z,4.05
2023-01-01T16:48:40.146Z,5.38
2023-01-01T16:53:53.442Z,5.65
2023-01-01T16:59:03.623Z,4.80
2023-01-01T17:04:15.209Z,4.57
2023-01-01T17:09:23.108Z,4.22
2023-01-01T17:14:31.103Z,4.80
2023-01-01T17:19:39.254Z,4.85
2023-01-01T17:24:43.794Z,5.20
2023-01-01T17:29:46.693Z,6.13
2023-01-01T17:45:28.436Z,5.32
2023-01-01T17:50:40.905Z,5.05
2023-01-01T17:55:49.749Z,4.78
2023-01-01T18:00:57.817Z,5.13
2023-01-01T18:06:01.072Z,4.80
2023-01-01T18:11:11.603Z,5.40
2023-01-01T18:16:22.992Z,6.50
2023-01-01T18:21:28.461Z,5.80
2023-01-01T18:26:34.688Z,5.88
2023-01-01T18:31:47.332Z,6.20
2023-01-01T18:37:22.380Z,7.95
2023-01-01T18:49:02.142Z,8.38
2023-01-01T18:54:14.653Z,7.88
2023-01-01T18:59:33.818Z,8.02
2023-01-01T19:04:51.221Z,7.15
2023-01-01T19:10:03.538Z,7.82
2023-01-01T19:15:24.437Z,8.40
2023-01-01T19:25:41.894Z,7.40
2023-01-01T19:30:49.412Z,7.32
2023-01-01T19:35:55.967Z,8.43
2023-01-01T19:41:27.381Z,8.48
2023-01-01T19:46:39.172Z,8.95
2023-01-01T19:51:45.073Z,9.00
2023-01-01T19:56:49.962Z,8.63
2023-01-01T20:02:25.811Z,8.73
2023-01-01T20:07:21.871Z,10.35
2023-01-01T20:12:27.663Z,9.60
2023-01-01T20:17:37.781Z,9.32
2023-01-01T20:22:49.824Z,8.38
2023-01-01T20:28:14.495Z,9.07
2023-01-01T20:33:23.846Z,7.85
2023-01-01T20:38:29.298Z,8.35
2023-01-01T20:43:46.462Z,8.25
2023-01-01T20:48:52.391Z,9.20
2023-01-01T20:54:03.178Z,7.90
2023-01-01T20:59:31.478Z,7.35
2023-01-01T21:04:31.080Z,7.65
2023-01-01T21:09:47.088Z,6.93
2023-01-01T21:14:56.613Z,8.52
2023-01-01T21:20:07.491Z,9.10
2023-01-01T21:25:51.930Z,9.82
2023-01-01T21:31:03.304Z,7.68
2023-01-01T21:36:23.639Z,7.70
2023-01-01T21:41:32.566Z,9.00
2023-01-01T21:46:38.867Z,8.30
2023-01-01T21:51:55.515Z,8.57
2023-01-01T21:57:01.374Z,9.70
2023-01-01T22:02:18.592Z,7.68
2023-01-01T22:07:58.223Z,8.15
2023-01-01T22:13:17.074Z,8.70
2023-01-01T22:18:39.336Z,8.75
2023-01-01T22:23:43.237Z,9.10
2023-01-01T22:29:06.708Z,8.63
2023-01-01T22:34:26.790Z,9.10
2023-01-01T22:39:37.317Z,8.80
2023-01-01T22:44:44.196Z,8.57
2023-01-01T22:49:55.154Z,9.05
2023-01-01T22:55:02.839Z,9.27
2023-01-01T23:00:12.417Z,8.38
2023-01-01T23:05:23.463Z,8.85
2023-01-01T23:10:27.318Z,8.40
2023-01-01T23:15:55.620Z,8.40
2023-01-01T23:21:14.873Z,8.48
2023-01-01T23:26:20.006Z,10.10
2023-01-01T23:31:34.650Z,8.70
2023-01-01T23:36:41.515Z,7.68
2023-01-01T23:41:45.164Z,7.57
2023-01-01T23:46:57.245Z,7.45
2023-01-01T23:52:11.526Z,7.75
2023-01-01T23:57:16.952Z,7.13
